Northeast Iowa Regional Airport
KCCY : now visible

Airfield :











YOU CAN JOIN US ON...

 
LOGIN :

Register | Disclaimer

   EN    FR    IT 

 









Legend :    VFR   Marginal VFR   IFR   Intensive IFR   Very Intensive IFR
Visi :
Ceiling :
>= 8 km
>= 3000ft
5 to 8 km
1000 to 3000 ft
1500m to 5 km
500 to 1000 ft
800 to 1500m
200 to 500 ft
< 800m
< 200 ft
Symbols :   Thunderstorms  Fog  Heavy snow  Heavy precipitations  Wind > 20 kt






- Airport Elevation : 1125 ft


KCCY - Northeast Iowa Regional

CURRENT METAR :
  • 100255Z AUTO 35005KT 10SM SCT190 SCT210 20/19 A2990 RMK AO2

EXPIRED METARs :
  • 100235Z AUTO 31006KT 10SM SCT180 BKN200 20/19 A2990 RMK AO2
  • 100215Z AUTO 31006KT 10SM BKN190 20/19 A2989 RMK AO2
  • 100155Z AUTO 33007KT 10SM BKN180 BKN200 20/19 A2988 RMK AO2
  • 100135Z AUTO 32008KT 10SM FEW180 20/19 A2988 RMK AO2
  • 100115Z AUTO 35009KT 10SM CLR 21/20 A2988 RMK AO2
  • 100055Z AUTO 04004KT 10SM CLR 21/20 A2987 RMK AO2
  • 100035Z AUTO 36006KT 9SM CLR 21/20 A2987 RMK AO2
  • 100015Z AUTO 33006KT 10SM FEW120 21/19 A2987 RMK AO2

TAF N/A
KZMP FIR / North America



MET'MAP, your aeronautical weather chart ! - Copyright ORBIFLY December 2007 - Disclaimer

ORBIFLY MET'MAP TEAM :

Programming & Development : Alexandra Zaïnal
Concept & original design : Baudouin d'Aumeries
Assistance for programming : Marc-Olivier Méhu
Technical & hardware support : Manuel Goepfert

Contact : metmap@orbifly.com




SOURCES & CREDITS :

   NOAA       Earth
Advisory